Time;durP1;ratioP1;P1;durP2;ratioP2;P2;SDS_P1;SDS_P2;PMS_P1;PMS_P2;Temp;Humidity;BMP_temperature;BMP_pressure;BME280_temperature;BME280_humidity;BME280_pressure;Samples;Min_cycle;Max_cycle;Signal;HPM_P1;HPM_P2
2024/01/15 00:01:56;;;;;;;16.07;9.10;;;;;;;-3.79;100.00;97671.38;4140274;28;20237;-51
2024/01/15 00:03:59;;;;;;;15.77;8.70;;;;;;;-3.81;100.00;97670.75;4135540;28;20295;-51
2024/01/15 00:06:01;;;;;;;14.37;8.80;;;;;;;-3.80;100.00;97672.41;4135316;28;20206;-51
2024/01/15 00:08:03;;;;;;;11.03;8.20;;;;;;;-3.78;100.00;97667.69;4139825;28;20209;-51
2024/01/15 00:10:05;;;;;;;6.80;5.87;;;;;;;-3.76;100.00;97668.34;4140905;28;20205;-51
2024/01/15 00:12:07;;;;;;;12.40;9.57;;;;;;;-3.69;100.00;97658.59;4136654;28;20802;-51
2024/01/15 00:14:09;;;;;;;10.30;9.60;;;;;;;-3.71;100.00;97671.31;4135563;28;20618;-51
2024/01/15 00:16:11;;;;;;;12.37;7.20;;;;;;;-3.69;100.00;97663.94;4137531;28;20282;-51
2024/01/15 00:18:13;;;;;;;5.30;4.90;;;;;;;-3.67;100.00;97662.75;4140822;28;20288;-51
2024/01/15 00:20:15;;;;;;;9.03;8.40;;;;;;;-3.72;100.00;97648.28;4137310;28;20234;-51
2024/01/15 00:22:17;;;;;;;13.20;9.00;;;;;;;-3.66;100.00;97647.53;4140188;28;20718;-51
2024/01/15 00:24:19;;;;;;;8.00;7.00;;;;;;;-3.78;100.00;97631.16;4141339;28;20220;-52
2024/01/15 00:26:21;;;;;;;14.03;6.20;;;;;;;-3.72;100.00;97642.94;4136663;28;20285;-50
2024/01/15 00:28:22;;;;;;;19.53;9.40;;;;;;;-3.67;100.00;97629.84;4137522;28;20205;-50
2024/01/15 00:30:24;;;;;;;11.07;5.70;;;;;;;-3.77;100.00;97630.13;4139017;28;20213;-51
2024/01/15 00:32:26;;;;;;;9.73;9.10;;;;;;;-3.86;100.00;97614.34;4141001;28;20237;-51
2024/01/15 00:34:28;;;;;;;8.47;7.60;;;;;;;-3.77;100.00;97615.91;4137474;28;20285;-51
2024/01/15 00:36:30;;;;;;;11.30;8.73;;;;;;;-3.73;100.00;97615.38;4137732;28;20667;-51
2024/01/15 00:38:32;;;;;;;8.50;7.33;;;;;;;-3.71;100.00;97623.22;4140320;28;20205;-51
2024/01/15 00:40:33;;;;;;;7.33;6.73;;;;;;;-3.70;100.00;97614.19;4140443;28;20312;-51
2024/01/15 00:42:35;;;;;;;11.63;10.63;;;;;;;-3.70;100.00;97616.84;4140266;28;20236;-51
2024/01/15 00:44:37;;;;;;;8.77;8.00;;;;;;;-3.68;100.00;97615.66;4123300;28;20296;-50
2024/01/15 00:46:47;;;;;;;9.20;8.40;;;;;;;-3.61;100.00;97624.59;4136733;28;20213;-50
2024/01/15 00:48:49;;;;;;;15.57;9.50;;;;;;;-3.54;100.00;97620.16;4125157;28;20214;-51
2024/01/15 00:50:51;;;;;;;5.60;5.10;;;;;;;-3.63;100.00;97604.41;4124246;28;20206;-51
2024/01/15 00:52:53;;;;;;;11.27;8.90;;;;;;;-3.65;100.00;97607.28;4139366;28;20296;-51
2024/01/15 00:54:55;;;;;;;9.30;6.50;;;;;;;-3.57;100.00;97603.69;4137015;28;20249;-50
2024/01/15 00:56:56;;;;;;;6.13;4.17;;;;;;;-3.53;100.00;97604.97;4137680;28;20297;-51
2024/01/15 00:59:00;;;;;;;19.37;7.00;;;;;;;-3.59;100.00;97597.69;4138878;28;20368;-51
2024/01/15 01:01:02;;;;;;;7.50;7.03;;;;;;;-3.66;100.00;97604.78;4142524;28;21727;-51
2024/01/15 01:03:08;;;;;;;6.90;6.30;;;;;;;-3.69;100.00;97602.47;4137231;28;20320;-50
2024/01/15 01:05:10;;;;;;;13.97;8.83;;;;;;;-3.61;100.00;97603.22;4143075;28;20223;-50
2024/01/15 01:07:11;;;;;;;7.23;4.67;;;;;;;-3.51;100.00;97597.59;4141164;28;20233;-51
2024/01/15 01:09:13;;;;;;;8.77;7.53;;;;;;;-3.54;100.00;97593.44;4138372;28;20665;-51
2024/01/15 01:11:15;;;;;;;9.93;6.23;;;;;;;-3.66;100.00;97610.13;4136028;28;20269;-51
2024/01/15 01:13:17;;;;;;;12.33;6.97;;;;;;;-3.67;100.00;97608.47;4143100;28;20256;-51
2024/01/15 01:15:19;;;;;;;9.93;7.13;;;;;;;-3.57;100.00;97603.69;4138944;28;20617;-52
2024/01/15 01:17:22;;;;;;;8.37;6.50;;;;;;;-3.52;100.00;97609.31;4152334;28;20216;-50
2024/01/15 01:19:25;;;;;;;8.27;6.47;;;;;;;-3.57;100.00;97614.38;4144178;28;20207;-51
2024/01/15 01:21:27;;;;;;;22.77;7.33;;;;;;;-3.53;100.00;97615.66;4141228;28;20236;-51
2024/01/15 01:23:29;;;;;;;15.43;7.07;;;;;;;-3.57;100.00;97617.88;4123559;28;20210;-52
2024/01/15 01:25:30;;;;;;;17.43;8.57;;;;;;;-3.58;100.00;97621.56;4143375;28;20278;-50
2024/01/15 01:27:32;;;;;;;7.77;6.40;;;;;;;-3.67;100.00;97611.16;4141394;28;20232;-53
2024/01/15 01:29:35;;;;;;;9.73;6.83;;;;;;;-3.59;100.00;97619.06;4141632;28;20210;-51
2024/01/15 01:31:42;;;;;;;7.67;6.93;;;;;;;-3.53;100.00;97610.31;4143395;28;20788;-52
2024/01/15 01:33:44;;;;;;;4.13;3.83;;;;;;;-3.49;100.00;97616.94;4157373;28;20212;-53
2024/01/15 01:35:47;;;;;;;8.93;6.80;;;;;;;-3.49;100.00;97606.25;4143949;28;20210;-50
2024/01/15 01:37:49;;;;;;;7.20;6.67;;;;;;;-3.49;100.00;97611.59;4121690;28;20225;-53
2024/01/15 01:39:50;;;;;;;5.97;5.63;;;;;;;-3.46;100.00;97612.06;4142657;28;20584;-52
2024/01/15 01:41:52;;;;;;;12.87;8.83;;;;;;;-3.52;100.00;97612.81;4139680;28;20232;-52
2024/01/15 01:43:54;;;;;;;20.97;8.30;;;;;;;-3.52;100.00;97617.31;4142389;28;20201;-53
2024/01/15 01:45:56;;;;;;;8.30;6.23;;;;;;;-3.51;100.00;97613.63;4137481;28;20637;-50
2024/01/15 01:48:00;;;;;;;10.73;6.03;;;;;;;-3.55;100.00;97618.50;4141929;28;20205;-52
2024/01/15 01:50:02;;;;;;;8.87;6.60;;;;;;;-3.44;100.00;97609.19;4136562;28;20205;-51
2024/01/15 01:52:06;;;;;;;8.43;7.13;;;;;;;-3.42;100.00;97613.34;4139142;28;20229;-51
2024/01/15 01:54:09;;;;;;;7.63;6.07;;;;;;;-3.44;100.00;97617.22;4141911;28;20689;-52
2024/01/15 01:56:12;;;;;;;7.00;6.43;;;;;;;-3.50;100.00;97615.28;4136522;28;20617;-51
2024/01/15 01:58:14;;;;;;;7.37;6.67;;;;;;;-3.49;100.00;97608.91;4139766;28;20632;-51
2024/01/15 02:00:16;;;;;;;9.47;7.30;;;;;;;-3.54;100.00;97603.31;4136182;28;20226;-51
2024/01/15 02:02:18;;;;;;;19.93;11.23;;;;;;;-3.45;100.00;97607.53;4138097;28;20272;-50
2024/01/15 02:04:24;;;;;;;9.03;5.47;;;;;;;-3.43;100.00;97608.19;4135963;28;20217;-52
2024/01/15 02:06:27;;;;;;;19.63;6.53;;;;;;;-3.46;100.00;97600.53;4123305;28;20447;-51
2024/01/15 02:08:29;;;;;;;9.57;6.27;;;;;;;-3.47;100.00;97598.91;4140636;28;20264;-51
2024/01/15 02:10:30;;;;;;;8.67;7.03;;;;;;;-3.48;100.00;97602.59;4138061;28;21238;-52
2024/01/15 02:12:32;;;;;;;5.83;5.33;;;;;;;-3.45;100.00;97599.53;4142220;28;20233;-52
2024/01/15 02:14:34;;;;;;;13.70;8.90;;;;;;;-3.44;100.00;97598.50;4140743;28;20206;-52
2024/01/15 02:16:36;;;;;;;8.03;7.33;;;;;;;-3.43;100.00;97594.81;4141368;28;20555;-51
2024/01/15 02:18:42;;;;;;;6.87;6.47;;;;;;;-3.43;100.00;97590.31;4129347;28;20208;-51
2024/01/15 02:20:44;;;;;;;8.83;6.60;;;;;;;-3.40;100.00;97591.78;4149072;28;20776;-52
2024/01/15 02:22:45;;;;;;;8.10;7.23;;;;;;;-3.38;100.00;97597.78;4138177;28;20209;-51
2024/01/15 02:24:47;;;;;;;12.93;9.10;;;;;;;-3.31;100.00;97585.31;4142786;28;20213;-51
2024/01/15 02:26:49;;;;;;;8.70;8.10;;;;;;;-3.31;100.00;97582.63;4141461;28;20213;-52
2024/01/15 02:28:51;;;;;;;7.93;5.57;;;;;;;-3.34;100.00;97593.72;4136583;28;20210;-50
2024/01/15 02:30:53;;;;;;;7.83;6.13;;;;;;;-3.37;100.00;97583.38;4135557;28;20206;-51
2024/01/15 02:32:55;;;;;;;14.03;7.37;;;;;;;-3.35;100.00;97581.38;4137729;28;20202;-51
2024/01/15 02:34:57;;;;;;;5.40;4.57;;;;;;;-3.32;100.00;97581.81;4136182;28;20210;-51
2024/01/15 02:36:58;;;;;;;5.80;5.40;;;;;;;-3.34;100.00;97583.84;4151546;28;20204;-50
2024/01/15 02:39:00;;;;;;;7.80;7.03;;;;;;;-3.27;100.00;97589.28;4141060;28;20216;-51
2024/01/15 02:41:02;;;;;;;10.63;9.57;;;;;;;-3.30;100.00;97581.63;4141503;28;20723;-52
2024/01/15 02:43:03;;;;;;;8.87;7.50;;;;;;;-3.22;100.00;97582.34;4142471;28;20209;-50
2024/01/15 02:45:05;;;;;;;15.23;9.40;;;;;;;-3.20;100.00;97574.16;4143214;28;20256;-52
2024/01/15 02:47:07;;;;;;;17.00;8.90;;;;;;;-3.14;100.00;97579.56;4142591;28;20636;-51
2024/01/15 02:49:09;;;;;;;12.27;8.03;;;;;;;-3.22;100.00;97570.81;4138430;28;20221;-50
2024/01/15 02:51:11;;;;;;;10.80;7.97;;;;;;;-3.17;100.00;97581.78;4141493;28;20229;-51
2024/01/15 02:53:13;;;;;;;15.40;7.63;;;;;;;-3.16;100.00;97586.94;4142724;28;20244;-52
2024/01/15 02:55:14;;;;;;;16.27;7.27;;;;;;;-3.13;100.00;97580.41;4151534;28;20217;-53
2024/01/15 02:57:16;;;;;;;14.17;7.73;;;;;;;-3.14;100.00;97570.72;4137902;28;20213;-50
2024/01/15 02:59:18;;;;;;;16.77;5.10;;;;;;;-3.17;100.00;97569.25;4138480;28;20718;-51
2024/01/15 03:01:20;;;;;;;12.23;7.07;;;;;;;-3.23;100.00;97563.81;4139471;28;20259;-52
2024/01/15 03:03:22;;;;;;;7.40;6.77;;;;;;;-3.28;100.00;97550.19;4141148;28;20210;-52
2024/01/15 03:05:24;;;;;;;9.00;7.40;;;;;;;-3.26;100.00;97532.91;4135297;28;20313;-52
2024/01/15 03:07:25;;;;;;;7.83;7.13;;;;;;;-3.26;100.00;97540.13;4119033;28;20207;-51
2024/01/15 03:09:27;;;;;;;8.33;6.67;;;;;;;-3.29;100.00;97535.16;4145029;28;20209;-51
2024/01/15 03:11:29;;;;;;;5.20;3.73;;;;;;;-3.25;100.00;97534.59;4141453;28;20297;-52
2024/01/15 03:13:31;;;;;;;10.80;5.00;;;;;;;-3.28;100.00;97528.81;4152332;28;20205;-52
2024/01/15 03:15:32;;;;;;;8.67;7.73;;;;;;;-3.24;100.00;97527.41;4135721;28;20205;-50
2024/01/15 03:17:34;;;;;;;11.27;7.40;;;;;;;-3.26;100.00;97524.09;4138289;28;20301;-52
2024/01/15 03:19:36;;;;;;;7.77;7.13;;;;;;;-3.27;100.00;97522.44;4137969;28;20685;-51
2024/01/15 03:21:38;;;;;;;11.47;6.97;;;;;;;-3.27;100.00;97525.13;4142559;28;20702;-52
2024/01/15 03:23:39;;;;;;;8.47;7.87;;;;;;;-3.20;100.00;97520.66;4142467;28;20656;-52
2024/01/15 03:25:41;;;;;;;6.00;5.60;;;;;;;-3.25;100.00;97521.22;4137056;28;20607;-51
2024/01/15 03:27:43;;;;;;;8.63;7.60;;;;;;;-3.25;100.00;97517.72;4138242;28;20205;-51
2024/01/15 03:29:45;;;;;;;7.63;6.90;;;;;;;-3.22;100.00;97525.34;4136664;28;20205;-51
2024/01/15 03:31:46;;;;;;;11.23;10.23;;;;;;;-3.19;100.00;97522.31;4140242;28;20307;-51
2024/01/15 03:33:48;;;;;;;16.87;8.70;;;;;;;-3.14;100.00;97533.28;4137991;28;20694;-51
2024/01/15 03:35:50;;;;;;;8.90;6.23;;;;;;;-3.12;100.00;97539.25;4136509;28;20202;-51
2024/01/15 03:37:52;;;;;;;8.73;7.97;;;;;;;-3.07;100.00;97537.66;4135883;28;20664;-51
2024/01/15 03:39:54;;;;;;;11.80;6.83;;;;;;;-3.08;100.00;97525.31;4137680;28;20590;-52
2024/01/15 03:41:56;;;;;;;9.83;7.23;;;;;;;-3.12;100.00;97515.19;4138400;28;20686;-51
2024/01/15 03:43:59;;;;;;;9.60;6.33;;;;;;;-3.13;100.00;97500.16;4119386;28;20915;-52
2024/01/15 03:46:01;;;;;;;14.93;6.80;;;;;;;-3.19;100.00;97495.56;4142673;28;20209;-50
2024/01/15 03:48:04;;;;;;;8.33;7.47;;;;;;;-3.16;100.00;97495.19;4139004;28;20213;-50
2024/01/15 03:50:06;;;;;;;7.43;6.80;;;;;;;-3.19;100.00;97500.94;4136591;28;20241;-51
2024/01/15 03:52:07;;;;;;;11.73;5.97;;;;;;;-3.18;100.00;97505.25;4136970;28;20299;-50
2024/01/15 03:54:09;;;;;;;7.07;6.17;;;;;;;-3.10;100.00;97497.09;4137270;28;20232;-53
2024/01/15 03:56:11;;;;;;;15.80;7.03;;;;;;;-3.12;100.00;97493.78;4137405;28;20309;-51
2024/01/15 03:58:14;;;;;;;17.87;9.77;;;;;;;-3.08;100.00;97519.97;4134638;28;20210;-51
2024/01/15 04:00:17;;;;;;;13.77;6.27;;;;;;;-3.02;100.00;97526.44;4151819;28;20779;-51
2024/01/15 04:02:19;;;;;;;16.53;7.10;;;;;;;-2.99;100.00;97518.84;4133923;28;20272;-53
2024/01/15 04:04:21;;;;;;;10.07;6.20;;;;;;;-3.04;100.00;97520.41;4137009;28;20213;-50
2024/01/15 04:06:22;;;;;;;7.07;6.57;;;;;;;-3.01;100.00;97520.06;4142097;28;20209;-50
2024/01/15 04:08:24;;;;;;;14.07;10.03;;;;;;;-2.96;100.00;97506.91;4141510;28;20818;-51
2024/01/15 04:10:26;;;;;;;19.27;6.70;;;;;;;-3.01;100.00;97499.47;4142788;28;20205;-52
2024/01/15 04:12:28;;;;;;;7.23;5.93;;;;;;;-2.95;100.00;97493.34;4144598;28;20228;-51
2024/01/15 04:14:30;;;;;;;6.03;5.53;;;;;;;-2.93;100.00;97501.19;4137612;28;20256;-51
2024/01/15 04:16:31;;;;;;;6.73;5.83;;;;;;;-2.90;100.00;97511.50;4139691;28;20205;-53
2024/01/15 04:18:33;;;;;;;7.40;6.80;;;;;;;-2.94;100.00;97495.00;4138262;28;20233;-51
2024/01/15 04:20:35;;;;;;;13.13;6.77;;;;;;;-2.89;100.00;97494.44;4134797;28;20280;-51
2024/01/15 04:22:37;;;;;;;5.63;5.20;;;;;;;-2.90;100.00;97487.41;4135242;28;20226;-51
2024/01/15 04:24:39;;;;;;;10.90;7.67;;;;;;;-2.88;100.00;97480.06;4136033;28;20213;-51
2024/01/15 04:26:40;;;;;;;6.40;5.80;;;;;;;-2.84;100.00;97473.28;4137224;28;20692;-51
2024/01/15 04:28:42;;;;;;;5.17;4.77;;;;;;;-2.89;100.00;97475.69;4134871;28;20209;-52
2024/01/15 04:30:44;;;;;;;7.53;6.67;;;;;;;-2.91;100.00;97488.44;4137167;28;20217;-52
2024/01/15 04:32:45;;;;;;;6.90;6.20;;;;;;;-2.89;100.00;97489.06;4142035;28;20282;-51
2024/01/15 04:34:47;;;;;;;9.90;5.43;;;;;;;-2.80;100.00;97487.94;4140376;28;20272;-51
2024/01/15 04:36:49;;;;;;;11.47;7.63;;;;;;;-2.82;100.00;97477.44;4140667;28;20296;-52
2024/01/15 04:38:51;;;;;;;6.63;5.93;;;;;;;-2.83;100.00;97481.13;4137697;28;20205;-51
2024/01/15 04:40:53;;;;;;;8.50;7.80;;;;;;;-2.72;100.00;97471.75;4145402;28;20225;-52
2024/01/15 04:42:58;;;;;;;6.17;5.83;;;;;;;-2.75;100.00;97472.16;4136189;28;20425;-50
2024/01/15 04:45:00;;;;;;;4.83;4.57;;;;;;;-2.73;100.00;97475.44;4122451;28;20213;-52
2024/01/15 04:47:02;;;;;;;8.77;6.20;;;;;;;-2.78;100.00;97462.66;4138779;28;20213;-50
2024/01/15 04:49:04;;;;;;;6.00;5.60;;;;;;;-2.74;100.00;97468.44;4133301;28;20221;-53
2024/01/15 04:51:06;;;;;;;6.30;5.80;;;;;;;-2.81;100.00;97468.38;4140081;28;20467;-51
2024/01/15 04:53:08;;;;;;;6.47;5.87;;;;;;;-2.78;100.00;97465.31;4138473;28;20256;-53
2024/01/15 04:55:14;;;;;;;12.27;6.57;;;;;;;-2.70;100.00;97469.69;4144420;28;20307;-51
2024/01/15 04:57:15;;;;;;;8.27;5.67;;;;;;;-2.72;100.00;97474.44;4143167;28;20205;-51
2024/01/15 04:59:17;;;;;;;10.17;8.13;;;;;;;-2.67;100.00;97480.03;4145581;28;20249;-51
2024/01/15 05:01:19;;;;;;;14.47;8.97;;;;;;;-2.69;100.00;97476.69;4137757;28;20312;-51
2024/01/15 05:03:21;;;;;;;9.10;5.17;;;;;;;-2.64;100.00;97480.47;4139565;28;20305;-51
2024/01/15 05:05:23;;;;;;;8.60;6.70;;;;;;;-2.62;100.00;97482.97;4125406;28;20206;-51
2024/01/15 05:07:25;;;;;;;5.27;4.97;;;;;;;-2.66;100.00;97479.00;4140274;28;20288;-51
2024/01/15 05:09:27;;;;;;;10.07;9.07;;;;;;;-2.63;100.00;97482.13;4122349;28;20213;-51
2024/01/15 05:11:33;;;;;;;9.13;8.43;;;;;;;-2.63;100.00;97471.41;4141045;28;20237;-52
2024/01/15 05:13:34;;;;;;;4.90;4.57;;;;;;;-2.59;100.00;97487.91;4141529;28;20555;-52
2024/01/15 05:15:36;;;;;;;15.70;8.60;;;;;;;-2.55;100.00;97478.50;4139278;28;20202;-52
2024/01/15 05:17:38;;;;;;;15.93;8.40;;;;;;;-2.53;100.00;97476.44;4141779;28;20300;-51
2024/01/15 05:19:40;;;;;;;10.97;5.40;;;;;;;-2.56;100.00;97483.00;4142640;28;20209;-52
2024/01/15 05:21:42;;;;;;;7.90;5.53;;;;;;;-2.51;100.00;97479.75;4139738;28;20229;-51
2024/01/15 05:23:44;;;;;;;15.23;8.83;;;;;;;-2.40;100.00;97473.88;4139621;28;20205;-51
2024/01/15 05:25:46;;;;;;;10.83;9.83;;;;;;;-2.52;100.00;97467.38;4140025;28;20213;-51
2024/01/15 05:27:47;;;;;;;13.07;7.43;;;;;;;-2.55;100.00;97462.44;4141325;28;20217;-52
2024/01/15 05:29:49;;;;;;;14.17;8.63;;;;;;;-2.57;100.00;97459.09;4140355;28;20850;-51
2024/01/15 05:31:51;;;;;;;7.20;6.47;;;;;;;-2.53;100.00;97449.66;4138028;28;20233;-51
2024/01/15 05:33:53;;;;;;;8.83;8.07;;;;;;;-2.53;100.00;97455.03;4138927;28;20296;-51
2024/01/15 05:35:55;;;;;;;12.60;11.53;;;;;;;-2.52;100.00;97462.03;4140845;28;20237;-52
2024/01/15 05:37:57;;;;;;;10.03;6.43;;;;;;;-2.52;100.00;97459.34;4138945;28;20236;-52
2024/01/15 05:39:58;;;;;;;7.23;6.13;;;;;;;-2.45;100.00;97462.91;4136532;28;20209;-51
2024/01/15 05:42:00;;;;;;;7.47;6.97;;;;;;;-2.48;100.00;97452.59;4140665;28;20237;-52
2024/01/15 05:44:02;;;;;;;10.33;9.10;;;;;;;-2.43;100.00;97460.84;4139767;28;20209;-52
2024/01/15 05:46:05;;;;;;;9.23;8.33;;;;;;;-2.40;100.00;97453.25;4138063;28;20266;-52
2024/01/15 05:48:06;;;;;;;8.37;7.10;;;;;;;-2.43;100.00;97444.78;4110119;28;20232;-51
2024/01/15 05:50:08;;;;;;;6.63;6.07;;;;;;;-2.40;100.00;97450.56;4156468;28;20211;-51
2024/01/15 05:52:10;;;;;;;11.03;9.90;;;;;;;-2.44;100.00;97449.31;4150818;28;20241;-51
2024/01/15 05:54:12;;;;;;;11.73;8.10;;;;;;;-2.44;100.00;97443.13;4143551;28;20291;-52
2024/01/15 05:56:14;;;;;;;6.07;5.80;;;;;;;-2.43;100.00;97434.06;4158073;28;20666;-51
2024/01/15 05:58:16;;;;;;;10.93;7.83;;;;;;;-2.52;100.00;97433.41;4155909;28;20223;-50
2024/01/15 06:00:18;;;;;;;10.03;7.00;;;;;;;-2.42;100.00;97430.41;4157736;28;20209;-51
2024/01/15 06:02:20;;;;;;;14.63;8.30;;;;;;;-2.43;100.00;97434.06;4151242;28;20233;-51
2024/01/15 06:04:22;;;;;;;8.00;7.23;;;;;;;-2.45;100.00;97433.44;4156669;28;20761;-50
2024/01/15 06:06:24;;;;;;;8.33;7.40;;;;;;;-2.43;100.00;97418.00;4156567;28;20217;-52
2024/01/15 06:08:27;;;;;;;5.57;5.13;;;;;;;-2.39;100.00;97425.47;4156851;28;20236;-53
2024/01/15 06:10:29;;;;;;;18.60;6.80;;;;;;;-2.38;100.00;97426.28;4155940;28;20213;-52
2024/01/15 06:12:32;;;;;;;7.17;6.50;;;;;;;-2.38;100.00;97420.94;4141119;28;20226;-51
2024/01/15 06:14:33;;;;;;;9.23;8.30;;;;;;;-2.31;100.00;97421.78;4154729;28;20663;-52
2024/01/15 06:16:35;;;;;;;8.30;7.60;;;;;;;-2.36;100.00;97418.88;4160385;28;20267;-50
2024/01/15 06:18:37;;;;;;;8.00;6.67;;;;;;;-2.37;100.00;97422.56;4160983;28;20230;-50
2024/01/15 06:20:39;;;;;;;9.17;8.33;;;;;;;-2.36;100.00;97424.22;4152430;28;20209;-52
2024/01/15 06:22:41;;;;;;;6.73;5.77;;;;;;;-2.32;100.00;97415.63;4139516;28;20648;-51
2024/01/15 06:24:42;;;;;;;10.33;5.87;;;;;;;-2.28;100.00;97418.75;4153455;28;20209;-52
2024/01/15 06:26:46;;;;;;;16.40;7.97;;;;;;;-2.30;100.00;97418.09;4167049;28;20208;-52
2024/01/15 06:28:48;;;;;;;10.43;6.03;;;;;;;-2.29;100.00;97423.25;4153611;28;20201;-51
2024/01/15 06:30:50;;;;;;;14.17;7.37;;;;;;;-2.26;100.00;97416.69;4153651;28;20204;-51
2024/01/15 06:32:52;;;;;;;5.17;4.77;;;;;;;-2.25;100.00;97426.38;4151888;28;20224;-51
2024/01/15 06:34:53;;;;;;;9.70;8.77;;;;;;;-2.27;100.00;97429.22;4147729;28;20216;-51
2024/01/15 06:36:55;;;;;;;8.83;7.90;;;;;;;-2.27;100.00;97423.06;4166261;28;20203;-50
2024/01/15 06:38:57;;;;;;;10.57;8.53;;;;;;;-2.18;100.00;97427.22;4149967;28;20209;-51
2024/01/15 06:40:59;;;;;;;8.10;7.40;;;;;;;-2.26;100.00;97422.88;4155197;28;20209;-51
2024/01/15 06:43:00;;;;;;;7.67;7.07;;;;;;;-2.26;100.00;97432.75;4152100;28;20627;-52
2024/01/15 06:45:02;;;;;;;6.67;6.27;;;;;;;-2.24;100.00;97422.66;4150419;28;20205;-50
2024/01/15 06:47:05;;;;;;;8.07;7.57;;;;;;;-2.18;100.00;97432.59;4152030;28;20212;-50
2024/01/15 06:49:06;;;;;;;7.23;6.33;;;;;;;-2.23;100.00;97429.66;4151273;28;20205;-52
2024/01/15 06:51:08;;;;;;;12.50;5.73;;;;;;;-2.19;100.00;97430.94;4151705;28;20267;-52
2024/01/15 06:53:10;;;;;;;24.53;11.77;;;;;;;-2.20;100.00;97440.00;4156515;28;21082;-51
2024/01/15 06:55:12;;;;;;;7.10;6.47;;;;;;;-2.21;100.00;97438.34;4156700;28;20219;-51
2024/01/15 06:57:13;;;;;;;6.67;6.03;;;;;;;-2.23;100.00;97443.91;4151354;28;20209;-52
2024/01/15 06:59:15;;;;;;;10.57;7.07;;;;;;;-2.26;100.00;97438.13;4151359;28;20216;-51
2024/01/15 07:01:20;;;;;;;7.17;6.60;;;;;;;-2.18;100.00;97440.63;4152894;28;20236;-50
2024/01/15 07:03:22;;;;;;;13.83;8.27;;;;;;;-2.09;100.00;97439.44;4151632;28;20257;-50
2024/01/15 07:05:24;;;;;;;7.83;7.23;;;;;;;-2.13;100.00;97438.19;4157099;28;20239;-51
2024/01/15 07:07:29;;;;;;;19.40;6.80;;;;;;;-2.11;100.00;97422.75;4149834;28;20251;-50
2024/01/15 07:09:30;;;;;;;9.37;8.67;;;;;;;-2.17;100.00;97420.84;4151898;28;20302;-51
2024/01/15 07:11:32;;;;;;;9.30;8.40;;;;;;;-2.09;100.00;97420.69;4151948;28;20271;-51
2024/01/15 07:13:35;;;;;;;20.57;7.10;;;;;;;-2.14;100.00;97423.16;4151107;28;20209;-50
2024/01/15 07:15:37;;;;;;;9.80;8.73;;;;;;;-2.11;100.00;97422.75;4133171;28;20914;-51
2024/01/15 07:17:39;;;;;;;7.30;6.83;;;;;;;-2.14;100.00;97418.59;4153647;28;20296;-52
2024/01/15 07:19:41;;;;;;;7.73;7.03;;;;;;;-2.13;100.00;97419.44;4153598;28;20819;-51
2024/01/15 07:21:43;;;;;;;6.70;6.20;;;;;;;-2.05;100.00;97416.59;4148945;28;20260;-51
2024/01/15 07:23:45;;;;;;;6.73;6.10;;;;;;;-2.08;100.00;97412.44;4148727;28;20209;-52
2024/01/15 07:25:47;;;;;;;9.80;8.90;;;;;;;-2.01;100.00;97424.03;4150864;28;20204;-52
2024/01/15 07:27:51;;;;;;;7.67;6.90;;;;;;;-2.03;100.00;97414.53;4149168;28;20929;-53
2024/01/15 07:29:53;;;;;;;8.10;7.03;;;;;;;-2.11;100.00;97422.75;4167969;28;20202;-52
2024/01/15 07:31:54;;;;;;;9.03;6.53;;;;;;;-2.01;100.00;97428.56;4153000;28;20597;-51
2024/01/15 07:33:56;;;;;;;9.57;7.03;;;;;;;-2.13;100.00;97422.94;4158582;28;20251;-51
2024/01/15 07:35:58;;;;;;;7.90;7.30;;;;;;;-2.14;100.00;97421.28;4153049;28;20294;-52
2024/01/15 07:38:03;;;;;;;6.40;5.80;;;;;;;-2.08;100.00;97423.16;4151680;28;20615;-52
2024/01/15 07:40:08;;;;;;;11.67;6.70;;;;;;;-2.04;100.00;97428.97;4148020;28;20300;-53
2024/01/15 07:42:10;;;;;;;9.60;7.60;;;;;;;-2.05;100.00;97432.66;4152351;28;20232;-52
2024/01/15 07:44:12;;;;;;;7.07;6.10;;;;;;;-2.01;100.00;97423.22;4150587;28;20223;-53
2024/01/15 07:46:13;;;;;;;10.63;8.23;;;;;;;-2.02;100.00;97426.94;4157787;28;20209;-53
2024/01/15 07:48:16;;;;;;;8.27;5.63;;;;;;;-1.96;100.00;97428.78;4151134;28;20242;-52
2024/01/15 07:50:18;;;;;;;15.53;7.57;;;;;;;-1.92;100.00;97405.94;4151596;28;22231;-53
2024/01/15 07:52:21;;;;;;;7.23;6.63;;;;;;;-1.99;100.00;97405.09;4149043;28;20295;-52
2024/01/15 07:54:24;;;;;;;14.83;6.40;;;;;;;-2.02;100.00;97400.94;4138751;28;20255;-53
2024/01/15 07:56:27;;;;;;;8.33;7.73;;;;;;;-2.04;100.00;97412.88;4128940;28;20691;-50
2024/01/15 07:58:29;;;;;;;8.37;7.60;;;;;;;-1.97;100.00;97405.69;4151543;28;20719;-52
2024/01/15 08:00:31;;;;;;;7.67;6.87;;;;;;;-1.98;100.00;97412.09;4150053;28;20209;-53
2024/01/15 08:02:32;;;;;;;6.77;6.27;;;;;;;-1.97;100.00;97408.38;4153337;28;20771;-52
2024/01/15 08:04:39;;;;;;;6.17;5.63;;;;;;;-2.01;100.00;97429.38;4151532;28;20213;-52
2024/01/15 08:06:41;;;;;;;4.90;4.60;;;;;;;-1.95;100.00;97427.78;4156913;28;20208;-54
2024/01/15 08:08:45;;;;;;;5.77;5.13;;;;;;;-1.90;100.00;97414.59;4151739;28;20215;-53
2024/01/15 08:10:47;;;;;;;6.07;5.27;;;;;;;-1.98;100.00;97434.38;4149483;28;20197;-53
2024/01/15 08:12:48;;;;;;;8.63;5.73;;;;;;;-1.91;100.00;97423.66;4153481;28;20260;-53
2024/01/15 08:14:50;;;;;;;6.03;5.67;;;;;;;-1.84;100.00;97419.16;4157815;28;20212;-54
2024/01/15 08:16:54;;;;;;;7.93;4.87;;;;;;;-1.90;100.00;97419.94;4150430;28;20275;-53
2024/01/15 08:18:56;;;;;;;8.03;7.33;;;;;;;-1.79;100.00;97414.88;4152815;28;20208;-51
2024/01/15 08:20:59;;;;;;;10.47;7.73;;;;;;;-1.90;100.00;97398.50;4155063;28;20249;-54
2024/01/15 08:23:00;;;;;;;7.27;6.37;;;;;;;-1.87;100.00;97408.84;4135279;28;20698;-53
2024/01/15 08:25:03;;;;;;;7.57;6.87;;;;;;;-1.79;100.00;97400.63;4136279;28;20220;-54
2024/01/15 08:27:05;;;;;;;9.40;7.53;;;;;;;-1.79;100.00;97396.13;4157529;28;20204;-52
2024/01/15 08:29:09;;;;;;;4.73;4.33;;;;;;;-1.82;100.00;97407.22;4151880;28;20244;-54
2024/01/15 08:31:12;;;;;;;7.70;5.43;;;;;;;-1.84;100.00;97408.44;4158327;28;20228;-53
2024/01/15 08:33:17;;;;;;;7.80;7.23;;;;;;;-1.81;100.00;97403.50;4138893;28;20201;-52
2024/01/15 08:35:25;;;;;;;7.57;6.00;;;;;;;-1.75;100.00;97397.34;4151110;28;20201;-51
2024/01/15 08:37:27;;;;;;;6.63;6.13;;;;;;;-1.84;100.00;97405.75;4154952;28;20300;-51
2024/01/15 08:39:30;;;;;;;14.83;6.43;;;;;;;-1.79;100.00;97406.00;4134785;28;20210;-58
2024/01/15 08:41:32;;;;;;;9.73;6.03;;;;;;;-1.73;100.00;97410.56;4150951;28;20228;-55
2024/01/15 08:43:37;;;;;;;9.33;8.33;;;;;;;-1.70;100.00;97410.13;4156796;28;20239;-52
2024/01/15 08:45:39;;;;;;;6.93;6.47;;;;;;;-1.69;100.00;97412.63;4149928;28;20296;-53
2024/01/15 08:47:41;;;;;;;11.50;6.80;;;;;;;-1.64;100.00;97414.69;4152359;28;20232;-52
2024/01/15 08:49:49;;;;;;;7.67;6.47;;;;;;;-1.66;100.00;97406.03;4153855;28;20209;-55
2024/01/15 08:51:52;;;;;;;8.27;7.47;;;;;;;-1.61;100.00;97414.31;4168512;28;20322;-54
2024/01/15 08:53:53;;;;;;;8.97;8.07;;;;;;;-1.67;100.00;97404.41;4171233;28;20204;-53
2024/01/15 08:55:55;;;;;;;7.43;6.30;;;;;;;-1.62;100.00;97415.34;4094960;28;20250;-54
2024/01/15 08:57:57;;;;;;;8.30;5.27;;;;;;;-1.61;100.00;97403.59;4154908;28;20212;-53
2024/01/15 08:59:59;;;;;;;6.27;5.77;;;;;;;-1.66;100.00;97401.53;4170190;28;20208;-51
2024/01/15 09:02:01;;;;;;;8.23;6.03;;;;;;;-1.67;100.00;97404.41;4171532;28;20233;-52
2024/01/15 09:04:03;;;;;;;6.43;5.87;;;;;;;-1.61;100.00;97408.97;4169746;28;20208;-52
2024/01/15 09:06:06;;;;;;;9.57;6.83;;;;;;;-1.67;100.00;97401.72;4168734;28;20210;-52
2024/01/15 09:08:08;;;;;;;6.83;6.33;;;;;;;-1.64;100.00;97398.63;4175864;28;20619;-55
2024/01/15 09:10:10;;;;;;;6.60;6.00;;;;;;;-1.60;100.00;97413.28;4166892;28;20645;-54
2024/01/15 09:12:15;;;;;;;8.57;7.17;;;;;;;-1.63;100.00;97402.94;4174270;28;20224;-55
2024/01/15 09:14:19;;;;;;;6.60;6.03;;;;;;;-1.66;100.00;97400.69;4162187;28;20252;-52
2024/01/15 09:16:37;;;;;;;5.53;5.13;;;;;;;-1.58;100.00;97403.19;4168555;28;20316;-54
2024/01/15 09:18:39;;;;;;;7.97;6.53;;;;;;;-1.62;100.00;97399.25;4162582;28;20208;-53
2024/01/15 09:20:41;;;;;;;7.57;6.40;;;;;;;-1.63;100.00;97394.91;4176899;28;20270;-54
2024/01/15 09:22:44;;;;;;;6.47;5.97;;;;;;;-1.61;100.00;97382.94;4170285;28;20227;-52
2024/01/15 09:24:49;;;;;;;10.33;5.27;;;;;;;-1.56;100.00;97395.75;4173090;28;20207;-51
2024/01/15 09:26:51;;;;;;;6.33;4.93;;;;;;;-1.49;100.00;97392.06;4168970;28;20262;-52